Time;durP1;ratioP1;P1;durP2;ratioP2;P2;SDS_P1;SDS_P2;PMS_P1;PMS_P2;Temp;Humidity;BMP_temperature;BMP_pressure;BME280_temperature;BME280_humidity;BME280_pressure;Samples;Min_cycle;Max_cycle;Signal;HPM_P1;HPM_P2
2023/08/19 00:01:09;;;;;;;8.40;4.50;;;;;;;20.37;100.00;100208.25;105274;1271;71827;-75
2023/08/19 00:03:37;;;;;;;6.50;4.30;;;;;;;20.36;100.00;100209.35;105080;1267;62165;-75
2023/08/19 00:06:09;;;;;;;6.10;4.20;;;;;;;20.36;100.00;100208.65;105927;1267;62061;-74
2023/08/19 00:08:36;;;;;;;4.40;3.90;;;;;;;20.36;100.00;100203.67;105802;1267;75445;-74
2023/08/19 00:11:03;;;;;;;4.10;3.70;;;;;;;20.35;100.00;100201.58;105469;1271;71473;-74
2023/08/19 00:13:30;;;;;;;6.30;4.20;;;;;;;20.36;100.00;100204.41;105137;1267;72723;-75
2023/08/19 00:15:57;;;;;;;9.00;4.50;;;;;;;20.35;100.00;100202.84;105356;1267;60481;-74
2023/08/19 00:18:23;;;;;;;8.20;4.70;;;;;;;20.34;100.00;100201.12;106137;1268;61962;-75
2023/08/19 00:20:50;;;;;;;4.80;4.30;;;;;;;20.32;100.00;100201.94;105287;1267;74492;-74
2023/08/19 00:23:17;;;;;;;6.10;4.40;;;;;;;20.32;100.00;100201.94;105374;1271;71253;-74
2023/08/19 00:25:44;;;;;;;5.70;4.30;;;;;;;20.32;100.00;100202.48;105337;1267;72566;-76
2023/08/19 00:28:11;;;;;;;5.90;4.50;;;;;;;20.32;100.00;100202.70;105993;1269;62061;-74
2023/08/19 00:30:38;;;;;;;6.90;4.70;;;;;;;20.32;100.00;100203.55;105805;1267;62452;-74
2023/08/19 00:33:05;;;;;;;8.10;4.50;;;;;;;20.31;100.00;100201.52;106007;1268;75275;-74
2023/08/19 00:35:32;;;;;;;6.90;4.60;;;;;;;20.30;100.00;100202.29;105431;1270;69923;-74
2023/08/19 00:37:59;;;;;;;8.10;4.80;;;;;;;20.29;100.00;100195.20;105740;1267;71390;-74
2023/08/19 00:40:25;;;;;;;5.10;4.20;;;;;;;20.29;100.00;100194.33;106008;1267;62074;-74
2023/08/19 00:42:52;;;;;;;7.30;4.10;;;;;;;20.29;100.00;100197.02;105062;1269;62369;-75
2023/08/19 00:45:19;;;;;;;11.50;4.20;;;;;;;20.29;100.00;100194.49;105418;1267;75439;-75
2023/08/19 00:47:46;;;;;;;4.90;4.20;;;;;;;20.28;100.00;100197.60;105338;1267;62128;-75
2023/08/19 00:50:13;;;;;;;8.60;4.70;;;;;;;20.27;100.00;100192.52;105658;1271;72989;-75
2023/08/19 00:52:40;;;;;;;5.80;4.00;;;;;;;20.24;100.00;100190.70;105942;1267;62281;-75
2023/08/19 00:55:07;;;;;;;6.40;4.60;;;;;;;20.20;100.00;100189.71;105411;1269;62282;-75
2023/08/19 00:57:35;;;;;;;6.60;4.80;;;;;;;20.18;100.00;100191.84;105213;1267;75270;-75
2023/08/19 01:00:02;;;;;;;15.40;5.00;;;;;;;20.17;100.00;100189.40;105332;1268;70239;-75
2023/08/19 01:02:30;;;;;;;7.10;5.00;;;;;;;20.16;100.00;100188.96;105284;1268;71910;-74
2023/08/19 01:04:57;;;;;;;6.30;4.70;;;;;;;20.13;100.00;100191.92;105387;1267;62211;-74
2023/08/19 01:07:38;;;;;;;6.60;4.60;;;;;;;20.11;100.00;100184.77;106037;1267;62220;-75
2023/08/19 01:10:16;;;;;;;4.80;4.30;;;;;;;20.08;100.00;100185.86;105166;1269;75492;-74
2023/08/19 01:12:49;;;;;;;5.00;4.40;;;;;;;20.06;100.00;100185.47;105462;1269;71165;-74
2023/08/19 01:15:21;;;;;;;8.20;4.50;;;;;;;20.03;100.00;100180.83;105768;1267;72937;-75
2023/08/19 01:17:48;;;;;;;7.00;4.50;;;;;;;19.99;100.00;100182.68;105749;1267;62168;-75
2023/08/19 01:20:15;;;;;;;5.00;4.60;;;;;;;19.96;100.00;100188.38;105181;1271;62202;-75
2023/08/19 01:22:43;;;;;;;5.30;4.80;;;;;;;19.94;100.00;100186.38;105707;1267;72916;-75
2023/08/19 01:25:10;;;;;;;5.10;4.50;;;;;;;19.92;100.00;100186.16;105686;1269;71006;-74
2023/08/19 01:27:36;;;;;;;7.10;4.60;;;;;;;19.89;100.00;100184.77;105724;1267;72710;-75
2023/08/19 01:30:03;;;;;;;6.00;4.60;;;;;;;19.85;100.00;100184.08;105088;1269;62148;-74
2023/08/19 01:32:31;;;;;;;7.60;4.40;;;;;;;19.83;100.00;100182.64;105547;1267;62076;-75
2023/08/19 01:34:58;;;;;;;7.10;4.70;;;;;;;19.81;100.00;100183.44;106005;1267;75330;-74
2023/08/19 01:37:30;;;;;;;5.90;4.40;;;;;;;19.80;100.00;100182.29;106021;1267;71220;-75
2023/08/19 01:39:57;;;;;;;7.60;4.80;;;;;;;19.78;100.00;100182.05;105701;1267;72587;-75
2023/08/19 01:42:23;;;;;;;7.70;4.50;;;;;;;19.74;100.00;100187.43;105747;1267;62087;-75
2023/08/19 01:44:51;;;;;;;6.20;4.60;;;;;;;19.73;100.00;100186.63;104811;1273;62085;-75
2023/08/19 01:47:18;;;;;;;5.90;5.20;;;;;;;19.70;100.00;100189.09;105283;1271;75527;-75
2023/08/19 01:49:45;;;;;;;6.20;5.70;;;;;;;19.67;100.00;100189.60;105982;1267;71170;-75
2023/08/19 01:52:12;;;;;;;6.30;4.80;;;;;;;19.66;100.00;100190.59;105014;1267;72502;-74
2023/08/19 01:54:39;;;;;;;6.70;5.20;;;;;;;19.64;100.00;100186.08;105429;1269;62204;-75
2023/08/19 01:57:06;;;;;;;8.40;6.00;;;;;;;19.61;100.00;100188.21;105679;1271;61995;-75
2023/08/19 01:59:34;;;;;;;6.20;5.50;;;;;;;19.59;100.00;100194.39;105264;1267;75359;-75
2023/08/19 02:02:00;;;;;;;7.00;4.80;;;;;;;19.56;100.00;100195.80;105341;1268;70419;-75
2023/08/19 02:04:27;;;;;;;5.30;4.90;;;;;;;19.54;100.00;100193.96;105266;1272;72651;-75
2023/08/19 02:06:54;;;;;;;5.60;5.00;;;;;;;19.51;100.00;100195.05;105753;1267;62078;-75
2023/08/19 02:09:20;;;;;;;8.80;4.60;;;;;;;19.48;100.00;100195.42;105416;1267;62076;-75
2023/08/19 02:11:47;;;;;;;5.90;5.00;;;;;;;19.45;100.00;100200.40;105615;1271;75845;-76
2023/08/19 02:14:14;;;;;;;9.70;4.90;;;;;;;19.41;100.00;100195.34;105354;1267;71028;-75
2023/08/19 02:16:40;;;;;;;6.20;5.60;;;;;;;19.37;100.00;100199.81;106167;1268;72467;-75
2023/08/19 02:19:09;;;;;;;5.80;5.20;;;;;;;19.35;100.00;100201.05;105312;1271;62101;-75
2023/08/19 02:21:36;;;;;;;5.30;4.70;;;;;;;19.32;100.00;100202.60;105732;1269;62055;-75
2023/08/19 02:24:03;;;;;;;6.20;4.90;;;;;;;19.29;100.00;100199.56;105325;1271;75418;-74
2023/08/19 02:26:30;;;;;;;7.90;5.20;;;;;;;19.26;100.00;100192.99;105977;1267;71550;-77
2023/08/19 02:28:57;;;;;;;7.50;5.60;;;;;;;19.22;100.00;100200.50;104999;1268;72573;-75
2023/08/19 02:31:26;;;;;;;9.00;6.00;;;;;;;19.20;100.00;100201.16;105333;1271;62176;-76
2023/08/19 02:33:53;;;;;;;8.10;5.70;;;;;;;19.17;100.00;100207.94;105904;1271;62237;-75
2023/08/19 02:36:20;;;;;;;9.70;6.40;;;;;;;19.16;100.00;100209.81;105387;1271;75303;-74
2023/08/19 02:38:46;;;;;;;7.90;6.50;;;;;;;19.14;100.00;100210.63;105296;1268;68677;-74
2023/08/19 02:41:13;;;;;;;6.60;5.60;;;;;;;19.11;100.00;100214.86;105322;1267;72771;-75
2023/08/19 02:43:40;;;;;;;7.70;5.70;;;;;;;19.09;100.00;100214.82;105292;1271;62100;-74
2023/08/19 02:46:06;;;;;;;5.60;5.10;;;;;;;19.06;100.00;100214.80;105239;1266;62082;-74
2023/08/19 02:48:33;;;;;;;7.40;5.70;;;;;;;19.04;100.00;100217.41;104980;1271;75850;-76
2023/08/19 02:51:00;;;;;;;12.60;5.70;;;;;;;19.01;100.00;100220.45;105667;1267;69616;-75
2023/08/19 02:53:28;;;;;;;5.70;5.20;;;;;;;18.98;100.00;100224.20;105315;1269;72753;-75
2023/08/19 02:55:55;;;;;;;7.60;5.60;;;;;;;18.95;100.00;100222.21;106046;1267;62116;-76
2023/08/19 02:58:22;;;;;;;8.10;6.10;;;;;;;18.92;100.00;100224.14;105342;1270;62085;-75
2023/08/19 03:00:48;;;;;;;7.20;5.70;;;;;;;18.90;100.00;100226.73;105611;1269;74371;-76
2023/08/19 03:03:15;;;;;;;8.10;5.70;;;;;;;18.89;100.00;100227.34;105624;1268;70924;-75
2023/08/19 03:05:42;;;;;;;9.20;5.80;;;;;;;18.87;100.00;100226.39;104971;1269;72802;-75
2023/08/19 03:08:09;;;;;;;6.00;5.40;;;;;;;18.87;100.00;100228.36;106144;1267;62106;-75
2023/08/19 03:10:37;;;;;;;6.60;5.90;;;;;;;18.86;100.00;100229.11;105527;1269;62123;-75
2023/08/19 03:13:04;;;;;;;7.30;5.90;;;;;;;18.85;100.00;100229.72;105009;1269;75234;-75
2023/08/19 03:15:31;;;;;;;8.40;6.20;;;;;;;18.84;100.00;100229.41;105462;1269;70233;-75
2023/08/19 03:17:58;;;;;;;7.20;6.50;;;;;;;18.83;100.00;100234.80;105603;1268;72674;-75
2023/08/19 03:20:25;;;;;;;8.10;5.90;;;;;;;18.83;100.00;100230.01;105732;1267;62686;-75
2023/08/19 03:22:51;;;;;;;13.40;7.00;;;;;;;18.83;100.00;100236.55;105280;1273;61984;-74
2023/08/19 03:25:18;;;;;;;7.10;6.40;;;;;;;18.84;100.00;100234.41;104988;1269;75300;-75
2023/08/19 03:27:45;;;;;;;9.30;5.70;;;;;;;18.85;100.00;100234.35;105600;1270;71390;-75
2023/08/19 03:30:12;;;;;;;10.30;6.60;;;;;;;18.87;100.00;100236.02;105615;1268;72632;-74
2023/08/19 03:32:39;;;;;;;10.40;6.40;;;;;;;18.88;100.00;100237.88;104883;1272;62147;-75
2023/08/19 03:35:07;;;;;;;8.40;6.60;;;;;;;18.90;100.00;100234.23;105393;1271;62097;-75
2023/08/19 03:37:33;;;;;;;7.30;5.90;;;;;;;18.92;100.00;100232.13;105339;1268;76004;-74
2023/08/19 03:40:02;;;;;;;8.90;6.70;;;;;;;18.94;100.00;100227.94;105038;1268;71098;-74
2023/08/19 03:42:30;;;;;;;8.60;7.00;;;;;;;18.96;100.00;100227.29;105417;1269;72830;-75
2023/08/19 03:44:56;;;;;;;10.90;6.70;;;;;;;19.00;100.00;100232.98;105256;1266;61983;-75
2023/08/19 03:47:23;;;;;;;7.20;6.30;;;;;;;19.03;100.00;100228.34;106058;1269;60374;-76
2023/08/19 03:49:50;;;;;;;7.30;6.40;;;;;;;19.07;100.00;100231.30;105333;1272;76210;-75
2023/08/19 03:52:16;;;;;;;10.90;7.40;;;;;;;19.11;100.00;100226.76;105779;1268;69586;-74
2023/08/19 03:54:43;;;;;;;8.60;7.00;;;;;;;19.16;100.00;100229.90;105619;1269;72981;-75
2023/08/19 03:57:10;;;;;;;17.80;7.80;;;;;;;19.21;100.00;100233.30;105651;1267;62129;-75
2023/08/19 03:59:36;;;;;;;10.10;7.70;;;;;;;19.27;100.00;100231.17;105787;1268;62301;-74
2023/08/19 04:02:03;;;;;;;11.50;7.70;;;;;;;19.34;100.00;100233.64;105705;1268;75436;-75
2023/08/19 04:04:30;;;;;;;8.40;7.60;;;;;;;19.40;100.00;100235.95;105067;1267;70927;-75
2023/08/19 04:06:57;;;;;;;8.40;7.60;;;;;;;19.48;100.00;100241.66;105960;1268;72890;-74
2023/08/19 04:09:24;;;;;;;10.10;7.30;;;;;;;19.56;100.00;100239.63;105569;1269;62749;-75
2023/08/19 04:11:51;;;;;;;14.90;7.30;;;;;;;19.64;100.00;100241.04;105757;1269;60148;-74
2023/08/19 04:14:18;;;;;;;13.90;7.70;;;;;;;19.73;100.00;100238.80;105705;1271;75737;-74
2023/08/19 04:16:45;;;;;;;9.60;7.40;;;;;;;19.81;100.00;100247.02;104931;1268;70950;-74
2023/08/19 04:19:11;;;;;;;13.30;7.60;;;;;;;19.90;100.00;100245.41;105002;1269;71349;-75
2023/08/19 04:21:38;;;;;;;8.50;7.30;;;;;;;19.98;100.00;100250.77;105016;1268;62003;-75
2023/08/19 04:24:05;;;;;;;12.40;7.50;;;;;;;20.07;100.00;100252.38;105692;1269;62094;-77
2023/08/19 04:26:32;;;;;;;10.70;7.00;;;;;;;20.16;100.00;100247.36;105344;1268;74256;-76
2023/08/19 04:28:59;;;;;;;12.40;7.60;;;;;;;20.24;100.00;100245.40;105355;1267;71029;-75
2023/08/19 04:31:29;;;;;;;9.50;6.90;;;;;;;20.33;100.00;100242.89;105327;1271;72615;-75
2023/08/19 04:33:58;;;;;;;17.90;7.20;;;;;;;20.42;100.00;100243.22;105257;1269;62310;-75
2023/08/19 04:36:26;;;;;;;14.80;6.90;;;;;;;20.51;100.00;100237.46;105914;1267;62098;-75
2023/08/19 04:38:53;;;;;;;11.90;6.90;;;;;;;20.60;100.00;100240.99;105785;1268;75387;-76
2023/08/19 04:41:20;;;;;;;8.80;6.40;;;;;;;20.68;100.00;100239.24;105308;1271;70039;-75
2023/08/19 04:43:47;;;;;;;11.30;6.50;;;;;;;20.78;100.00;100234.83;105306;1269;72469;-75
2023/08/19 04:46:15;;;;;;;10.70;6.30;;;;;;;20.88;100.00;100236.66;105747;1268;62085;-75
2023/08/19 04:48:42;;;;;;;13.20;6.10;;;;;;;20.99;100.00;100237.41;105305;1268;62247;-74
2023/08/19 04:51:08;;;;;;;12.60;6.80;;;;;;;21.09;100.00;100239.94;105365;1269;74921;-75
2023/08/19 04:53:35;;;;;;;11.00;6.20;;;;;;;21.20;100.00;100237.27;105381;1267;70885;-76
2023/08/19 04:56:03;;;;;;;10.20;5.70;;;;;;;21.30;100.00;100239.98;105408;1269;72523;-74
2023/08/19 04:58:32;;;;;;;5.80;5.30;;;;;;;21.41;100.00;100236.36;104881;1269;61985;-74
2023/08/19 05:00:59;;;;;;;10.50;6.00;;;;;;;21.52;100.00;100230.60;105332;1269;62187;-76
2023/08/19 05:03:25;;;;;;;6.90;5.70;;;;;;;21.63;100.00;100231.18;106104;1273;73926;-75
2023/08/19 05:05:53;;;;;;;7.40;6.10;;;;;;;21.73;100.00;100235.05;105761;1269;71512;-75
2023/08/19 05:08:23;;;;;;;9.50;5.40;;;;;;;21.85;100.00;100232.60;105559;1271;72534;-74
2023/08/19 05:10:50;;;;;;;6.30;5.10;;;;;;;21.98;100.00;100229.41;105267;1268;62194;-75
2023/08/19 05:13:18;;;;;;;8.90;6.40;;;;;;;22.09;100.00;100227.16;105377;1267;62049;-75
2023/08/19 05:15:44;;;;;;;5.70;5.20;;;;;;;22.20;100.00;100226.04;105639;1269;75805;-75
2023/08/19 05:18:11;;;;;;;10.00;5.30;;;;;;;22.30;100.00;100217.66;105529;1269;70872;-76
2023/08/19 05:20:38;;;;;;;8.00;4.80;;;;;;;22.43;100.00;100225.16;105650;1268;72720;-75
2023/08/19 05:23:05;;;;;;;10.90;5.50;;;;;;;22.55;100.00;100223.37;105364;1268;62216;-75
2023/08/19 05:25:31;;;;;;;7.80;5.10;;;;;;;22.66;100.00;100224.74;105417;1268;62045;-75
2023/08/19 05:27:58;;;;;;;7.90;5.50;;;;;;;22.76;100.00;100220.94;105268;1271;62082;-76
2023/08/19 05:30:25;;;;;;;10.90;5.70;;;;;;;22.88;100.00;100220.05;105007;1269;71325;-75
2023/08/19 05:32:52;;;;;;;7.90;5.30;;;;;;;23.00;100.00;100216.29;105678;1269;71370;-74
2023/08/19 05:35:19;;;;;;;7.90;5.30;;;;;;;23.11;100.00;100214.05;106053;1269;62188;-75
2023/08/19 05:37:46;;;;;;;7.90;5.20;;;;;;;23.21;100.00;100210.08;105312;1271;62181;-74
2023/08/19 05:40:12;;;;;;;10.10;6.10;;;;;;;23.29;100.00;100209.42;105182;1269;73933;-74
2023/08/19 05:42:39;;;;;;;16.10;5.30;;;;;;;23.40;100.00;100213.14;104994;1269;71058;-74
2023/08/19 05:45:06;;;;;;;10.00;5.20;;;;;;;23.50;100.00;100206.79;105392;1269;72584;-75
2023/08/19 05:47:33;;;;;;;9.40;5.50;;;;;;;23.60;100.00;100209.80;105762;1269;61831;-75
2023/08/19 05:50:00;;;;;;;12.90;5.40;;;;;;;23.68;100.00;100209.09;105139;1271;62423;-76
2023/08/19 05:52:27;;;;;;;7.50;5.00;;;;;;;23.80;100.00;100207.17;105698;1267;75449;-76
2023/08/19 05:54:54;;;;;;;9.60;5.00;;;;;;;23.90;100.00;100207.79;105372;1269;71274;-76
2023/08/19 05:57:20;;;;;;;15.70;5.20;;;;;;;24.00;100.00;100204.34;105303;1269;72759;-74
2023/08/19 05:59:47;;;;;;;12.10;5.90;;;;;;;24.10;100.00;100202.09;105720;1269;62155;-74
2023/08/19 06:02:14;;;;;;;9.70;5.70;;;;;;;24.20;100.00;100200.36;105009;1269;62678;-74
2023/08/19 06:04:41;;;;;;;10.10;5.30;;;;;;;24.30;100.00;100201.71;105404;1269;75619;-74
2023/08/19 06:07:07;;;;;;;10.60;5.50;;;;;;;24.41;100.00;100206.25;105695;1269;70899;-75
2023/08/19 06:09:34;;;;;;;8.70;5.00;;;;;;;24.51;100.00;100211.17;105786;1271;72996;-75
2023/08/19 06:12:02;;;;;;;7.80;5.60;;;;;;;24.62;100.00;100212.41;105926;1271;62000;-74
2023/08/19 06:14:29;;;;;;;9.70;6.00;;;;;;;24.73;100.00;100207.05;105758;1268;62658;-75
2023/08/19 06:16:55;;;;;;;9.90;5.10;;;;;;;24.83;100.00;100196.66;105086;1271;62109;-76
2023/08/19 06:19:22;;;;;;;10.00;5.20;;;;;;;24.94;100.00;100194.77;105709;1269;71125;-75
2023/08/19 06:21:50;;;;;;;8.30;5.20;;;;;;;25.05;100.00;100198.66;105568;1269;72703;-75
2023/08/19 06:24:17;;;;;;;7.00;5.00;;;;;;;25.16;100.00;100198.06;105614;1267;62095;-75
2023/08/19 06:26:44;;;;;;;5.50;5.00;;;;;;;25.25;100.00;100204.84;105359;1269;62104;-75
2023/08/19 06:29:10;;;;;;;9.60;5.10;;;;;;;25.36;100.00;100204.29;105371;1271;75764;-75
2023/08/19 06:31:37;;;;;;;8.50;5.20;;;;;;;25.46;100.00;100203.58;105416;1268;71001;-75
2023/08/19 06:34:05;;;;;;;9.40;5.30;;;;;;;25.57;100.00;100197.98;105567;1269;74141;-76
2023/08/19 06:36:32;;;;;;;6.10;5.40;;;;;;;25.68;100.00;100195.08;105666;1269;62232;-74
2023/08/19 06:39:09;;;;;;;10.40;5.20;;;;;;;25.79;100.00;100190.89;105547;1267;62074;-74
2023/08/19 06:41:39;;;;;;;12.00;5.30;;;;;;;25.89;100.00;100194.86;105138;1271;75163;-74
2023/08/19 06:44:06;;;;;;;9.50;5.60;;;;;;;25.99;100.00;100194.73;105077;1271;71151;-75
2023/08/19 06:46:33;;;;;;;18.00;5.70;;;;;;;26.10;100.00;100189.99;105083;1271;71467;-76
2023/08/19 06:49:00;;;;;;;12.60;5.30;;;;;;;26.20;100.00;100194.69;105433;1269;62097;-75
2023/08/19 06:51:28;;;;;;;7.80;5.00;;;;;;;26.29;100.00;100197.64;105248;1272;62199;-74
2023/08/19 06:53:55;;;;;;;8.50;4.80;;;;;;;26.38;100.00;100196.29;106013;1271;74473;-75
2023/08/19 06:56:37;;;;;;;23.10;7.10;;;;;;;26.46;100.00;100198.63;105881;1271;70935;-75
2023/08/19 06:59:10;;;;;;;9.50;5.50;;;;;;;26.55;100.00;100201.78;105836;1269;72735;-75
2023/08/19 07:01:37;;;;;;;8.80;5.10;;;;;;;26.63;100.00;100200.71;105158;1269;62173;-75
2023/08/19 07:04:04;;;;;;;18.70;5.40;;;;;;;26.72;100.00;100201.91;105890;1268;62108;-76
2023/08/19 07:06:31;;;;;;;14.00;4.80;;;;;;;26.79;100.00;100202.11;105162;1269;75362;-75
2023/08/19 07:08:58;;;;;;;9.10;5.20;;;;;;;26.88;100.00;100201.63;105709;1267;69119;-74
2023/08/19 07:11:26;;;;;;;9.50;4.80;;;;;;;26.99;100.00;100199.24;105220;1271;71117;-75
2023/08/19 07:13:53;;;;;;;8.10;4.80;;;;;;;27.11;100.00;100203.52;105917;1269;62163;-74
2023/08/19 07:16:22;;;;;;;11.50;4.90;;;;;;;27.22;100.00;100200.29;105411;1271;61959;-74
2023/08/19 07:18:51;;;;;;;12.50;4.80;;;;;;;27.33;100.00;100198.30;105756;1269;74599;-74
2023/08/19 07:21:17;;;;;;;9.40;4.60;;;;;;;27.43;100.00;100198.37;105277;1267;71250;-76
2023/08/19 07:23:45;;;;;;;10.20;4.10;;;;;;;27.53;100.00;100194.78;105493;1269;73401;-76
2023/08/19 07:26:12;;;;;;;8.70;4.00;;;;;;;27.62;100.00;100191.17;105097;1272;62041;-75
2023/08/19 07:28:39;;;;;;;5.90;4.40;;;;;;;27.73;100.00;100189.54;105886;1271;62195;-75
2023/08/19 07:31:06;;;;;;;6.80;4.90;;;;;;;27.85;100.00;100190.58;105564;1269;73949;-75
2023/08/19 07:33:41;;;;;;;9.40;4.50;;;;;;;27.96;100.00;100189.36;106162;1271;70030;-75
2023/08/19 07:36:08;;;;;;;7.40;4.40;;;;;;;28.06;100.00;100185.33;106157;1271;63922;-75
2023/08/19 07:38:35;;;;;;;6.00;4.20;;;;;;;28.14;100.00;100181.30;105849;1267;62145;-75
2023/08/19 07:41:03;;;;;;;18.90;5.40;;;;;;;28.22;100.00;100176.59;105100;1271;63481;-76
2023/08/19 07:43:29;;;;;;;9.20;4.30;;;;;;;28.30;100.00;100178.82;105729;1268;65699;-75
2023/08/19 07:45:56;;;;;;;7.10;3.80;;;;;;;28.39;100.00;100179.20;106018;1271;62331;-76
2023/08/19 07:48:27;;;;;;;9.10;4.40;;;;;;;28.49;100.00;100180.41;105540;1269;63915;-75
2023/08/19 07:50:55;;;;;;;7.50;4.00;;;;;;;28.59;100.00;100180.70;105352;1270;62130;-76
2023/08/19 07:53:23;;;;;;;6.60;3.90;;;;;;;28.69;100.00;100181.15;105268;1271;62051;-75
2023/08/19 07:55:50;;;;;;;4.80;3.30;;;;;;;28.78;100.00;100175.41;105825;1267;66752;-74
2023/08/19 07:58:16;;;;;;;9.70;3.90;;;;;;;28.87;100.00;100177.20;105208;1271;62511;-76
2023/08/19 08:00:43;;;;;;;6.30;3.90;;;;;;;28.97;100.00;100175.96;105714;1271;62775;-76
2023/08/19 08:03:10;;;;;;;8.50;3.30;;;;;;;29.06;100.00;100174.14;106356;1270;62032;-74
2023/08/19 08:05:37;;;;;;;8.50;3.80;;;;;;;29.15;100.00;100174.49;105596;1270;62009;-75
2023/08/19 08:08:04;;;;;;;4.70;3.80;;;;;;;29.24;100.00;100170.55;105520;1270;66564;-74
2023/08/19 08:10:30;;;;;;;11.60;4.10;;;;;;;29.32;100.00;100171.72;106192;1268;62693;-74
2023/08/19 08:12:58;;;;;;;6.50;4.00;;;;;;;29.38;100.00;100169.52;105618;1271;63838;-75
2023/08/19 08:15:24;;;;;;;9.60;3.80;;;;;;;29.44;100.00;100163.43;105664;1271;62099;-74
2023/08/19 08:17:51;;;;;;;6.80;4.40;;;;;;;29.54;100.00;100164.61;105209;1266;62085;-74
2023/08/19 08:20:18;;;;;;;5.00;3.60;;;;;;;29.64;100.00;100165.71;105253;1271;67308;-74
2023/08/19 08:22:45;;;;;;;6.30;4.00;;;;;;;29.75;100.00;100162.25;105510;1272;62393;-75
2023/08/19 08:25:11;;;;;;;9.40;4.20;;;;;;;29.84;100.00;100159.65;105127;1271;63739;-75
2023/08/19 08:27:38;;;;;;;6.30;3.60;;;;;;;29.89;100.00;100155.27;105669;1271;62134;-74
2023/08/19 08:30:06;;;;;;;8.30;3.40;;;;;;;29.94;100.00;100152.61;105928;1269;62202;-75
2023/08/19 08:32:32;;;;;;;5.70;3.40;;;;;;;30.02;100.00;100147.06;105770;1271;66884;-75
2023/08/19 08:34:59;;;;;;;6.30;3.20;;;;;;;30.14;100.00;100146.70;105627;1267;62575;-75
2023/08/19 08:37:26;;;;;;;4.90;3.80;;;;;;;30.26;100.00;100145.91;105584;1267;63783;-75
2023/08/19 08:39:53;;;;;;;9.90;3.80;;;;;;;30.39;100.00;100147.87;105508;1267;62197;-76
2023/08/19 08:42:20;;;;;;;4.90;3.60;;;;;;;30.49;100.00;100146.77;105497;1271;62091;-75
2023/08/19 08:44:49;;;;;;;6.10;3.10;;;;;;;30.59;100.00;100144.29;105097;1267;65430;-76
2023/08/19 08:47:16;;;;;;;6.90;3.30;;;;;;;30.68;100.00;100139.44;105594;1271;62129;-75
2023/08/19 08:49:43;;;;;;;8.40;2.90;;;;;;;30.77;100.00;100139.92;105829;1270;63839;-75
2023/08/19 08:52:10;;;;;;;5.80;3.40;;;;;;;30.87;100.00;100140.61;105649;1271;62202;-76
2023/08/19 08:54:37;;;;;;;9.50;3.00;;;;;;;30.97;100.00;100135.07;105534;1271;62065;-76
2023/08/19 08:57:04;;;;;;;5.20;3.60;;;;;;;31.06;100.00;100137.43;105407;1272;65584;-75
2023/08/19 08:59:31;;;;;;;5.90;3.80;;;;;;;31.13;100.00;100133.77;106237;1269;62115;-75
2023/08/19 09:01:58;;;;;;;5.00;3.30;;;;;;;31.18;100.00;100136.10;105895;1272;64211;-75
2023/08/19 09:04:24;;;;;;;9.40;3.30;;;;;;;31.28;100.00;100137.20;105283;1270;62045;-76
2023/08/19 09:06:53;;;;;;;8.70;3.50;;;;;;;31.38;100.00;100133.14;105709;1272;62060;-75
2023/08/19 09:09:20;;;;;;;5.10;3.70;;;;;;;31.48;100.00;100133.48;105891;1267;65716;-76
2023/08/19 09:13:00;;;;;;;7.90;3.80;;;;;;;31.58;100.00;100132.40;103284;1286;600367;-76
2023/08/19 09:15:28;;;;;;;8.80;3.70;;;;;;;31.60;100.00;100133.96;105606;1266;59295;-74
2023/08/19 09:17:57;;;;;;;6.80;4.20;;;;;;;31.68;100.00;100136.73;106123;1266;59276;-75
2023/08/19 09:20:27;;;;;;;10.20;4.60;;;;;;;31.77;100.00;100134.79;106005;1266;63472;-74
2023/08/19 09:23:06;;;;;;;6.00;4.00;;;;;;;31.85;100.00;100127.51;107003;1258;61130;-75
2023/08/19 09:25:37;;;;;;;11.00;3.50;;;;;;;31.86;100.00;100128.25;105672;1251;215098;-74
2023/08/19 09:28:06;;;;;;;7.70;3.40;;;;;;;31.79;100.00;100126.75;106356;1259;59417;-75
2023/08/19 09:30:34;;;;;;;9.60;3.60;;;;;;;31.76;100.00;100128.19;106642;1251;61087;-77
2023/08/19 09:33:01;;;;;;;7.20;3.30;;;;;;;31.80;100.00;100124.85;106716;1251;63384;-76
2023/08/19 09:35:36;;;;;;;6.60;3.60;;;;;;;31.82;100.00;100123.23;106224;1251;62651;-75
2023/08/19 09:38:24;;;;;;;7.40;3.90;;;;;;;31.87;100.00;100117.85;106562;1252;63739;-73
2023/08/19 09:48:35;;;;;;;9.60;4.10;;;;;;;32.20;100.00;100108.04;104088;1291;600805;-74
2023/08/19 09:51:03;;;;;;;7.70;4.20;;;;;;;32.24;100.00;100108.14;105584;1270;59209;-76
2023/08/19 09:53:31;;;;;;;9.10;4.20;;;;;;;32.34;100.00;100111.52;105328;1270;59277;-76
2023/08/19 09:55:58;;;;;;;14.90;8.10;;;;;;;32.38;100.00;100109.17;106252;1258;62117;-76
2023/08/19 09:58:26;;;;;;;17.60;13.00;;;;;;;32.37;100.00;100107.54;106417;1257;60902;-74
2023/08/19 10:00:53;;;;;;;13.00;5.30;;;;;;;32.30;100.00;100104.22;106371;1263;62420;-74
2023/08/19 10:03:21;;;;;;;6.50;4.00;;;;;;;32.32;100.00;100105.19;107055;1258;239498;-75
2023/08/19 10:05:53;;;;;;;4.70;4.10;;;;;;;32.34;100.00;100103.11;106712;1251;59202;-75
2023/08/19 10:08:23;;;;;;;7.40;4.00;;;;;;;32.31;100.00;100095.00;106585;1251;61994;-74
2023/08/19 10:10:50;;;;;;;6.40;3.80;;;;;;;32.29;100.00;100097.19;106843;1257;60884;-75
2023/08/19 10:13:18;;;;;;;7.50;3.70;;;;;;;32.25;100.00;100094.41;106942;1254;63249;-75
2023/08/19 10:15:45;;;;;;;7.00;3.70;;;;;;;32.32;100.00;100095.64;106837;1251;59666;-76
2023/08/19 10:18:17;;;;;;;5.60;3.70;;;;;;;32.45;100.00;100097.19;106766;1257;59624;-75
2023/08/19 10:20:47;;;;;;;5.20;3.40;;;;;;;32.55;100.00;100087.73;107027;1254;64179;-75
2023/08/19 10:23:15;;;;;;;15.40;3.60;;;;;;;32.58;100.00;100092.28;106895;1251;62173;-74
2023/08/19 10:25:43;;;;;;;11.80;3.60;;;;;;;32.57;100.00;100090.29;107315;1251;63745;-75
2023/08/19 10:28:21;;;;;;;9.50;3.40;;;;;;;32.48;100.00;100090.11;107233;1257;60845;-74
2023/08/19 10:31:09;;;;;;;5.50;3.60;;;;;;;32.41;100.00;100092.92;106840;1256;59560;-74
2023/08/19 10:33:44;;;;;;;7.50;4.30;;;;;;;32.43;100.00;100089.36;107255;1251;62825;-76
2023/08/19 10:36:16;;;;;;;11.80;3.40;;;;;;;32.54;100.00;100090.64;107299;1251;62233;-75
2023/08/19 10:38:57;;;;;;;8.50;3.30;;;;;;;32.59;100.00;100092.23;106772;1256;62421;-75
2023/08/19 10:41:27;;;;;;;4.00;3.00;;;;;;;32.54;100.00;100088.19;107212;1251;59631;-75
2023/08/19 10:44:07;;;;;;;5.20;4.20;;;;;;;32.47;100.00;100082.14;107124;1251;59276;-76
2023/08/19 10:46:41;;;;;;;12.90;3.70;;;;;;;32.49;100.00;100077.77;106497;1254;64275;-77
2023/08/19 10:49:19;;;;;;;12.80;3.40;;;;;;;32.55;100.00;100077.41;106590;1251;62279;-74
2023/08/19 10:51:53;;;;;;;7.40;3.50;;;;;;;32.62;100.00;100076.09;107127;1251;62585;-77
2023/08/19 10:54:35;;;;;;;6.80;3.50;;;;;;;32.77;100.00;100079.40;106531;1255;60039;-73
2023/08/19 10:57:27;;;;;;;9.90;3.40;;;;;;;32.94;100.00;100082.05;106951;1251;59829;-75
2023/08/19 10:59:59;;;;;;;5.20;3.10;;;;;;;33.09;100.00;100074.88;107423;1256;64610;-76
2023/08/19 11:02:28;;;;;;;11.90;4.00;;;;;;;33.22;100.00;100069.64;106778;1251;62131;-75
2023/08/19 11:04:57;;;;;;;4.00;2.90;;;;;;;33.38;100.00;100062.58;106316;1251;62435;-76
2023/08/19 11:07:25;;;;;;;6.70;2.90;;;;;;;33.52;100.00;100061.23;106399;1251;59666;-76
2023/08/19 11:09:56;;;;;;;6.00;2.80;;;;;;;33.63;98.39;100057.38;106607;1251;59877;-76
2023/08/19 11:12:26;;;;;;;6.20;2.70;;;;;;;33.76;96.16;100051.94;106602;1251;64631;-74
2023/08/19 11:14:57;;;;;;;6.40;2.90;;;;;;;33.91;97.50;100057.11;107585;1251;62306;-75
2023/08/19 11:17:30;;;;;;;7.50;2.50;;;;;;;34.01;92.09;100055.71;106446;1251;63895;-74
2023/08/19 11:20:07;;;;;;;11.60;2.40;;;;;;;34.08;88.82;100054.58;107043;1254;59624;-75